PILOTS ONLINE: 274    ATC ONLINE: 49

KHYA

Barnstable Municipal Boardman Polando Field

Location

IATA HYA
City Hyannis
Country  United States
Latitude 41° 40' 9" N
Longitude 70° 16' 49" W
Elevation 54 ft
Type Medium Airport

Map

Weather

METAR
2014/10/01 11:56
KHYA 011156Z 03008KT 4SM -RA BR OVC006 17/16 A2998 RMK AO2 CIG 004V009 SLP153 P0006 60013 70019 T01720161 10172 20167 53010 $
TAF
2014/10/01 12:30
TAF KHYA 011125Z 0112/0212 04012KT 6SM -SHRA BR OVC005 
     FM011800 04011G19KT 6SM -SHRA OVC008 
     FM020000 04012G21KT 3SM -SHRA BR OVC008 
     FM020700 04014KT 3SM BR OVC008

Runways

06/24 5425 ft / 150 ft
15/33 5252 ft / 150 ft

Outbound flights

Callsign Flying to Pilot ATD/STD ETA Aircraft

Inbound flights

Callsign Flying from Pilot ATD ETA Aircraft